OROVILLE DAM (ORO)

Elevation: 900' · FEATHER R basin · Operator: CA Dept of Water Resources/O & M

Provisional data, subject to change.
Query executed Sunday at 17:18:40   clock

Select a sensor type for a plot of data.
Note: Reservoir Flows are daily averages.

Earlier

Date RES ELE    STORAGE    RES CHG    TOC STO    ABV TOC    OUTFLOW    INFLOW    EVAP    FNF    PPT INC    RAIN    PPTINC4   
 FEET   AF   AF   AF   AF   CFS   CFS   CFS   CFS   INCHES   INCHES   INCHES  
08/01/2015 686.61 1155320 -6639 3538000 -2382680 4453 1220 77 1090 0.00 26.24 0.00
08/02/2015 685.72 1148923 -6397 3538000 -2389077 4472 1324 77 780 0.00 26.24 0.00
08/03/2015 684.76 1142052 -6871 3538000 -2395948 4326 894 32 555 e 0.00 26.24 0.00
08/04/2015 684.05 1136988 -5064 3538000 -2401012 4179 1677 86 554 e 0.00 26.24 0.00
08/05/2015 683.16 1130664 -6324 3538000 -2407336 3817 708 44 554 e 0.00 26.24 0.00
08/06/2015 682.54 1126272 -4392 3538000 -2411728 3293 1074 67 650 e 0.00 26.24 0.00
08/07/2015 682.18 1123728 -2544 3538000 -2414272 2953 1786 80 651 e 0.00 26.24 0.00
08/08/2015 681.79 1120977 -2751 3538000 -2417023 2792 1509 68 876 0.00 26.24 0.00
08/09/2015 681.21 1116894 -4083 3538000 -2421106 2728 772 68 870 0.00 26.24 0.00
08/10/2015 680.81 1114083 -2811 -- -- 2890 1484 82 729 0.00 26.24 0.00
08/11/2015 680.30 1110508 -3575 3538000 -- 3022 1296 77 859 0.00 26.24 0.00
08/12/2015 679.75 1106661 -3847 3538000 -2431339 3024 1169 84 693 0.00 26.24 0.00
08/13/2015 679.38 1104078 -2583 3538000 -2433922 2692 1492 68 505 0.00 26.24 0.00
08/14/2015 678.74 1099621 -4457 3538000 -2438379 2702 542 88 674 e 0.00 26.24 0.00
08/15/2015 678.55 1098300 -1321 3538000 -2439700 2722 2136 79 673 e 0.00 26.24 0.00
08/16/2015 678.20 1095870 -2430 3538000 -2442130 2726 1582 81 684 0.00 26.24 0.00
08/17/2015 677.87 1093582 -2288 3538000 -2444418 2354 1246 81 478 0.00 26.24 0.00
08/18/2015 677.73 1092612 -969 3538000 -2445388 2110 1777 121 655 e 0.00 26.24 0.00
08/19/2015 677.37 1090122 -2491 3538000 -2447878 2123 966 98 655 e 0.00 26.24 0.00
08/20/2015 677.07 1088050 -2072 3538000 -2449950 2169 1173 49 -- 0.00 26.24 0.00
08/21/2015 676.96 1087291 -759 3538000 -2450709 2165 1860 42 -- 0.00 26.24 0.00
08/22/2015 676.51 1084189 -3102 3538000 -2453811 2153 636 47 -- 0.00 26.24 0.00
08/23/2015 676.47 1083913 -276 3538000 -2454087 2167 2042 49 -- 0.00 26.24 0.00
08/24/2015 676.20 1082056 -1857 3538000 -2455944 2177 1351 111 -- 0.00 26.24 0.00
08/25/2015 675.86 1079719 -2337 3538000 -2458281 2166 1070 82 -- 0.00 26.24 0.00
08/26/2015 675.89 1079926 207 3538000 -2458074 2132 2292 91 -- 0.00 26.24 0.00
08/27/2015 675.97 1080475 549 3538000 -2457525 2157 2560 91 -- 0.00 26.24 0.00
08/28/2015 675.58 1077798 -2677 3538000 -2460202 2201 945 93 -- 0.00 26.24 0.00
08/29/2015 675.26 1075605 -2193 -- -- 2234 1195 67 -- 0.04 26.28 0.00
08/30/2015 -- -- -- -- -- -- -- -- -- -- -- 0.04

Later | Latest

Warning! This data is preliminary and subject to revision.

Show ORO Map | Plot ORO Data | 1 Month ORO Data | Real-Time ORO Data | ORO Info